createdAt,value
2022-12-03T00:00:27.197Z,24.80
2022-12-03T00:03:47.931Z,28.90
2022-12-03T00:06:50.099Z,30.83
2022-12-03T00:10:11.624Z,26.27
2022-12-03T00:13:31.851Z,24.98
2022-12-03T00:16:34.296Z,30.60
2022-12-03T00:19:36.457Z,30.90
2022-12-03T00:22:38.482Z,25.02
2022-12-03T00:25:59.239Z,24.23
2022-12-03T00:29:01.262Z,19.35
2022-12-03T00:32:03.618Z,20.05
2022-12-03T00:35:06.096Z,21.15
2022-12-03T00:38:08.286Z,22.17
2022-12-03T00:41:10.395Z,20.15
2022-12-03T00:44:12.582Z,20.73
2022-12-03T00:47:14.877Z,18.88
2022-12-03T00:50:17.080Z,22.05
2022-12-03T00:53:19.117Z,16.73
2022-12-03T00:56:21.382Z,20.50
2022-12-03T00:59:25.092Z,20.85
2022-12-03T01:02:27.208Z,20.55
2022-12-03T01:05:29.293Z,20.88
2022-12-03T01:08:31.380Z,20.80
2022-12-03T01:11:40.927Z,14.60
2022-12-03T01:14:43.964Z,18.40
2022-12-03T01:18:04.279Z,21.77
2022-12-03T01:21:06.589Z,22.13
2022-12-03T01:24:09.057Z,25.65
2022-12-03T01:27:11.472Z,29.52
2022-12-03T01:30:14.449Z,18.45
2022-12-03T01:33:16.601Z,20.15
2022-12-03T01:36:18.601Z,29.02
2022-12-03T01:39:20.824Z,26.25
2022-12-03T01:42:50.221Z,19.23
2022-12-03T01:45:52.467Z,21.80
2022-12-03T01:48:56.959Z,22.45
2022-12-03T01:52:00.460Z,18.73
2022-12-03T01:55:23.452Z,15.90
2022-12-03T01:58:28.422Z,17.65
2022-12-03T02:01:49.037Z,18.73
2022-12-03T02:04:53.388Z,21.15
2022-12-03T02:07:55.943Z,17.27
2022-12-03T02:11:01.895Z,18.70
2022-12-03T02:14:08.540Z,15.27
2022-12-03T02:17:12.369Z,16.85
2022-12-03T02:20:14.864Z,14.38
2022-12-03T02:23:38.927Z,17.75
2022-12-03T02:26:41.266Z,18.10
2022-12-03T02:30:01.814Z,19.38
2022-12-03T02:33:05.294Z,18.08
2022-12-03T02:36:07.483Z,19.50
2022-12-03T02:39:11.257Z,25.05
2022-12-03T02:42:32.388Z,17.90
2022-12-03T02:45:38.380Z,17.20
2022-12-03T02:52:01.929Z,21.10
2022-12-03T02:55:06.960Z,25.13
2022-12-03T02:58:11.984Z,22.48
2022-12-03T03:01:16.252Z,22.70
2022-12-03T03:04:18.977Z,17.75
2022-12-03T03:07:21.163Z,17.42
2022-12-03T03:10:24.359Z,19.30
2022-12-03T03:13:26.860Z,14.23
2022-12-03T03:16:28.989Z,15.73
2022-12-03T03:19:33.164Z,23.00
2022-12-03T03:22:37.969Z,17.60
2022-12-03T03:25:42.866Z,15.15
2022-12-03T03:28:51.808Z,19.45
2022-12-03T03:31:54.219Z,16.02
2022-12-03T03:34:57.335Z,19.23
2022-12-03T03:38:00.006Z,18.92
2022-12-03T03:41:04.858Z,15.10
2022-12-03T03:44:08.814Z,17.17
2022-12-03T03:47:11.211Z,17.23
2022-12-03T03:50:14.461Z,21.08
2022-12-03T03:53:17.868Z,19.33
2022-12-03T03:56:21.215Z,17.27
2022-12-03T04:03:06.928Z,17.10
2022-12-03T04:06:09.159Z,23.40
2022-12-03T04:09:29.784Z,16.55
2022-12-03T04:16:10.917Z,20.92
2022-12-03T04:19:12.982Z,19.98
2022-12-03T04:22:43.102Z,16.77
2022-12-03T04:26:04.517Z,17.00
2022-12-03T04:29:07.043Z,24.60
2022-12-03T04:32:27.835Z,22.17
2022-12-03T04:35:46.109Z,17.88
2022-12-03T04:38:48.611Z,26.50
2022-12-03T04:41:51.022Z,20.48
2022-12-03T04:44:53.328Z,17.25
2022-12-03T04:47:57.721Z,20.25
2022-12-03T04:50:59.772Z,21.13
2022-12-03T04:54:20.278Z,20.27
2022-12-03T04:57:22.415Z,24.33
2022-12-03T05:00:24.581Z,25.17
2022-12-03T05:03:26.981Z,17.85
2022-12-03T05:06:31.332Z,17.73
2022-12-03T05:09:33.760Z,13.32
2022-12-03T05:12:36.016Z,22.00
2022-12-03T05:15:38.104Z,22.88
2022-12-03T05:18:40.289Z,23.65
2022-12-03T05:21:42.327Z,20.17
2022-12-03T05:24:44.502Z,19.45
2022-12-03T05:27:47.738Z,18.65
2022-12-03T05:30:52.336Z,21.98
2022-12-03T05:33:55.298Z,24.20
2022-12-03T05:36:57.412Z,17.70
2022-12-03T05:40:01.849Z,20.40
2022-12-03T05:43:04.754Z,24.23
2022-12-03T05:46:25.507Z,28.27
2022-12-03T05:49:27.722Z,21.95
2022-12-03T05:52:30.988Z,18.13
2022-12-03T05:55:33.152Z,27.60
2022-12-03T05:59:15.430Z,20.70
2022-12-03T06:02:36.350Z,33.22
2022-12-03T06:05:39.242Z,21.52
2022-12-03T06:08:41.723Z,22.08
2022-12-03T06:11:43.709Z,24.27
2022-12-03T06:14:45.994Z,24.33
2022-12-03T06:17:48.472Z,23.95
2022-12-03T06:20:50.634Z,21.90
2022-12-03T06:24:11.434Z,17.85
2022-12-03T06:27:14.483Z,21.70
2022-12-03T06:30:17.605Z,19.85
2022-12-03T06:33:19.674Z,28.27
2022-12-03T06:36:23.482Z,18.58
2022-12-03T06:39:25.626Z,23.23
2022-12-03T06:42:45.952Z,24.25
2022-12-03T06:45:48.226Z,19.88
2022-12-03T06:48:50.978Z,19.02
2022-12-03T06:51:53.228Z,17.30
2022-12-03T06:54:55.606Z,21.38
2022-12-03T06:57:57.844Z,20.92
2022-12-03T07:00:59.868Z,14.82
2022-12-03T07:04:01.868Z,15.52
2022-12-03T07:07:23.479Z,14.73
2022-12-03T07:10:43.929Z,15.93
2022-12-03T07:13:45.930Z,17.67
2022-12-03T07:16:49.103Z,18.42
2022-12-03T07:19:52.513Z,19.80
2022-12-03T07:22:54.537Z,19.42
2022-12-03T07:26:06.060Z,17.48
2022-12-03T07:29:10.515Z,19.10
2022-12-03T07:32:12.564Z,24.55
2022-12-03T07:35:15.023Z,23.58
2022-12-03T07:38:22.056Z,21.58
2022-12-03T07:41:44.768Z,19.83
2022-12-03T07:44:47.137Z,14.57
2022-12-03T07:47:49.369Z,17.75
2022-12-03T07:50:51.915Z,15.00
2022-12-03T07:54:12.957Z,17.20
2022-12-03T07:57:15.028Z,17.40
2022-12-03T08:00:18.153Z,22.95
2022-12-03T08:03:20.564Z,18.60
2022-12-03T08:06:24.263Z,14.40
2022-12-03T08:09:26.770Z,23.88
2022-12-03T08:12:43.519Z,22.40
2022-12-03T08:16:25.755Z,18.65
2022-12-03T08:19:40.616Z,19.67
2022-12-03T08:23:22.106Z,18.92
2022-12-03T08:26:44.578Z,23.15
2022-12-03T08:29:47.338Z,19.75
2022-12-03T08:32:50.803Z,23.10
2022-12-03T08:35:54.539Z,23.33
2022-12-03T08:39:02.499Z,19.30
2022-12-03T08:42:36.164Z,20.83
2022-12-03T08:45:41.512Z,19.02
2022-12-03T08:48:48.650Z,22.50
2022-12-03T08:52:01.790Z,18.48
2022-12-03T08:55:34.243Z,21.48
2022-12-03T08:58:44.387Z,23.38
2022-12-03T09:01:47.452Z,18.80
2022-12-03T09:04:49.590Z,21.25
2022-12-03T09:07:51.847Z,22.98
2022-12-03T09:10:54.046Z,24.55
2022-12-03T09:13:56.110Z,18.48
2022-12-03T09:17:00.225Z,21.10
2022-12-03T09:20:02.604Z,22.55
2022-12-03T09:23:04.950Z,16.52
2022-12-03T09:26:08.560Z,34.58
2022-12-03T09:29:12.544Z,24.77
2022-12-03T09:32:18.302Z,41.10
2022-12-03T09:35:20.946Z,31.52
2022-12-03T09:38:23.035Z,20.33
2022-12-03T09:41:27.839Z,25.52
2022-12-03T09:44:32.664Z,16.70
2022-12-03T09:47:34.791Z,24.40
2022-12-03T09:50:41.553Z,27.63
2022-12-03T09:53:43.675Z,22.25
2022-12-03T09:56:45.790Z,18.63
2022-12-03T09:59:47.883Z,16.60
2022-12-03T10:02:52.850Z,20.17
2022-12-03T10:05:55.714Z,20.20
2022-12-03T10:09:04.386Z,23.83
2022-12-03T10:12:11.877Z,21.70
2022-12-03T10:15:19.505Z,21.90
2022-12-03T10:18:24.203Z,22.50
2022-12-03T10:21:32.364Z,21.75
2022-12-03T10:24:36.762Z,20.40
2022-12-03T10:27:40.085Z,16.92
2022-12-03T10:30:55.537Z,24.17
2022-12-03T10:33:58.478Z,32.65
2022-12-03T10:37:21.510Z,16.35
2022-12-03T10:40:29.538Z,20.15
2022-12-03T10:43:31.565Z,17.80
2022-12-03T10:46:34.344Z,21.08
2022-12-03T10:49:36.955Z,22.25
2022-12-03T10:52:40.172Z,14.48
2022-12-03T10:55:44.483Z,18.60
2022-12-03T10:58:48.507Z,17.45
2022-12-03T11:01:53.011Z,15.82
2022-12-03T11:04:55.791Z,16.60
2022-12-03T11:07:58.137Z,13.60
2022-12-03T11:11:03.616Z,14.10
2022-12-03T11:14:05.973Z,16.33
2022-12-03T11:17:08.354Z,24.10
2022-12-03T11:20:15.779Z,12.43
2022-12-03T11:23:44.613Z,15.95
2022-12-03T11:27:09.760Z,15.80
2022-12-03T11:30:11.902Z,14.65
2022-12-03T11:33:24.735Z,29.67
2022-12-03T11:36:47.745Z,20.70
2022-12-03T11:40:07.325Z,10.48
2022-12-03T11:43:10.114Z,13.88
2022-12-03T11:46:21.759Z,34.28
2022-12-03T11:49:32.581Z,15.10
2022-12-03T11:52:43.452Z,13.80
2022-12-03T11:56:09.210Z,14.13
2022-12-03T12:02:47.266Z,32.10
2022-12-03T12:06:10.671Z,12.07
2022-12-03T12:09:14.153Z,13.00
2022-12-03T12:12:48.968Z,14.80
2022-12-03T12:16:02.154Z,21.88
2022-12-03T12:19:37.265Z,23.73
2022-12-03T12:22:39.552Z,24.75
2022-12-03T12:25:42.016Z,29.15
2022-12-03T12:28:44.090Z,40.55
2022-12-03T12:31:50.773Z,36.33
2022-12-03T12:35:02.367Z,19.35
2022-12-03T12:38:07.229Z,20.38
2022-12-03T12:41:10.367Z,17.13
2022-12-03T12:44:14.118Z,23.33
2022-12-03T12:47:16.281Z,18.98
2022-12-03T12:50:19.326Z,16.83
2022-12-03T12:53:35.305Z,19.85
2022-12-03T12:56:37.579Z,18.77
2022-12-03T12:59:39.855Z,20.40
2022-12-03T13:02:45.428Z,28.00
2022-12-03T13:05:50.388Z,18.13
2022-12-03T13:08:53.186Z,25.95
2022-12-03T13:12:00.084Z,22.17
2022-12-03T13:15:02.108Z,20.90
2022-12-03T13:18:34.343Z,16.13
2022-12-03T13:21:45.810Z,20.08
2022-12-03T13:24:52.807Z,18.65
2022-12-03T13:27:54.998Z,10.32
2022-12-03T13:31:26.519Z,16.88
2022-12-03T13:34:33.194Z,20.73
2022-12-03T13:37:35.321Z,20.80
2022-12-03T13:40:37.816Z,22.77
2022-12-03T13:43:44.523Z,26.77
2022-12-03T13:46:47.190Z,22.48
2022-12-03T13:50:03.709Z,25.48
2022-12-03T13:53:12.227Z,27.95
2022-12-03T13:56:27.866Z,29.27
2022-12-03T13:59:29.934Z,19.08
2022-12-03T14:02:32.323Z,18.50
2022-12-03T14:05:34.479Z,26.00
2022-12-03T14:08:37.596Z,20.70
2022-12-03T14:11:58.587Z,22.13
2022-12-03T14:15:06.082Z,25.02
2022-12-03T14:18:08.160Z,31.83
2022-12-03T14:21:10.168Z,25.27
2022-12-03T14:24:12.259Z,23.63
2022-12-03T14:27:14.334Z,28.20
2022-12-03T14:30:17.805Z,21.52
2022-12-03T14:33:20.006Z,18.10
2022-12-03T14:36:24.360Z,23.23
2022-12-03T14:39:26.390Z,19.42
2022-12-03T14:42:28.440Z,20.83
2022-12-03T14:45:31.262Z,27.48
2022-12-03T14:48:33.372Z,23.63
2022-12-03T14:51:35.591Z,30.15
2022-12-03T14:54:39.356Z,23.10
2022-12-03T14:57:41.492Z,23.98
2022-12-03T15:00:43.931Z,29.10
2022-12-03T15:03:46.395Z,29.38
2022-12-03T15:10:44.683Z,35.10
2022-12-03T15:13:54.074Z,21.92
2022-12-03T15:16:56.191Z,25.88
2022-12-03T15:20:05.697Z,35.50
2022-12-03T15:23:14.472Z,22.92
2022-12-03T15:26:23.588Z,34.28
2022-12-03T15:33:06.200Z,31.67
2022-12-03T15:37:23.567Z,41.65
2022-12-03T15:40:26.297Z,25.58
2022-12-03T15:43:32.693Z,36.15
2022-12-03T15:46:34.926Z,34.80
2022-12-03T15:49:36.985Z,22.58
2022-12-03T15:52:39.047Z,22.92
2022-12-03T15:55:41.070Z,28.00
2022-12-03T15:58:43.392Z,30.52
2022-12-03T16:01:45.480Z,25.00
2022-12-03T16:04:47.508Z,25.85
2022-12-03T16:07:49.889Z,28.73
2022-12-03T16:10:53.215Z,30.85
2022-12-03T16:13:56.032Z,29.77
2022-12-03T16:17:01.510Z,28.35
2022-12-03T16:20:04.463Z,22.05
2022-12-03T16:23:10.547Z,32.42
2022-12-03T16:26:16.085Z,28.75
2022-12-03T16:29:18.382Z,28.30
2022-12-03T16:32:20.376Z,24.90
2022-12-03T16:35:22.447Z,38.85
2022-12-03T16:38:24.621Z,24.42
2022-12-03T16:41:26.796Z,25.85
2022-12-03T16:44:48.755Z,29.35
2022-12-03T16:47:54.357Z,32.25
2022-12-03T16:50:56.447Z,20.70
2022-12-03T16:53:58.537Z,22.80
2022-12-03T16:57:00.582Z,20.30
2022-12-03T17:00:02.610Z,24.88
2022-12-03T17:03:06.013Z,37.13
2022-12-03T17:06:08.046Z,25.27
2022-12-03T17:09:10.052Z,24.02
2022-12-03T17:12:12.122Z,37.47
2022-12-03T17:15:17.117Z,27.63
2022-12-03T17:18:19.226Z,26.75
2022-12-03T17:21:25.531Z,22.88
2022-12-03T17:24:27.626Z,25.38
2022-12-03T17:27:29.778Z,52.22
2022-12-03T17:30:32.056Z,33.30
2022-12-03T17:33:34.844Z,35.33
2022-12-03T17:36:37.030Z,33.67
2022-12-03T17:39:39.300Z,30.63
2022-12-03T17:42:49.175Z,32.33
2022-12-03T17:50:42.215Z,31.15
2022-12-03T17:53:45.222Z,33.38
2022-12-03T17:57:27.906Z,38.15
2022-12-03T18:00:30.144Z,44.50
2022-12-03T18:03:32.361Z,36.85
2022-12-03T18:06:34.462Z,46.45
2022-12-03T18:09:36.522Z,39.50
2022-12-03T18:12:38.592Z,40.83
2022-12-03T18:16:05.726Z,44.08
2022-12-03T18:19:09.247Z,42.15
2022-12-03T18:22:12.797Z,32.33
2022-12-03T18:25:14.936Z,36.33
2022-12-03T18:28:16.959Z,32.15
2022-12-03T18:31:21.111Z,35.45
2022-12-03T18:34:23.164Z,33.85
2022-12-03T18:37:29.702Z,36.58
2022-12-03T18:40:31.869Z,35.00
2022-12-03T18:43:36.778Z,33.47
2022-12-03T18:46:52.841Z,32.70
2022-12-03T18:49:56.363Z,39.90
2022-12-03T18:52:58.715Z,35.97
2022-12-03T18:56:02.930Z,38.22
2022-12-03T18:59:06.660Z,38.65
2022-12-03T19:02:32.473Z,36.25
2022-12-03T19:05:37.592Z,40.33
2022-12-03T19:08:39.653Z,36.55
2022-12-03T19:11:41.757Z,30.90
2022-12-03T19:14:43.804Z,32.85
2022-12-03T19:17:49.796Z,32.35
2022-12-03T19:20:51.870Z,34.95
2022-12-03T19:24:22.523Z,26.27
2022-12-03T19:27:16.116Z,31.48
2022-12-03T19:30:18.288Z,31.98
2022-12-03T19:33:25.170Z,29.17
2022-12-03T19:36:31.674Z,34.22
2022-12-03T19:39:33.765Z,25.52
2022-12-03T19:42:36.185Z,26.67
2022-12-03T19:45:38.206Z,28.80
2022-12-03T19:48:43.076Z,24.23
2022-12-03T19:51:45.804Z,16.08
2022-12-03T19:54:47.734Z,17.83
2022-12-03T19:57:52.047Z,16.73
2022-12-03T20:00:54.409Z,15.48
2022-12-03T20:03:58.943Z,19.02
2022-12-03T20:07:01.078Z,16.50
2022-12-03T20:10:04.094Z,15.35
2022-12-03T20:13:08.945Z,14.93
2022-12-03T20:16:13.815Z,13.50
2022-12-03T20:19:17.907Z,13.90
2022-12-03T20:22:19.900Z,9.18
2022-12-03T20:25:22.140Z,14.02
2022-12-03T20:28:26.608Z,13.00
2022-12-03T20:31:30.752Z,13.35
2022-12-03T20:34:36.009Z,6.43
2022-12-03T20:37:40.357Z,10.20
2022-12-03T20:40:45.517Z,10.60
2022-12-03T20:43:47.775Z,9.00
2022-12-03T20:46:50.145Z,14.02
2022-12-03T20:49:52.664Z,14.18
2022-12-03T20:53:22.591Z,13.20
2022-12-03T20:56:20.701Z,13.60
2022-12-03T20:59:23.152Z,11.93
2022-12-03T21:02:25.151Z,11.88
2022-12-03T21:05:27.315Z,11.43
2022-12-03T21:08:41.162Z,9.02
2022-12-03T21:11:44.036Z,12.32
2022-12-03T21:14:46.250Z,10.25
2022-12-03T21:17:48.372Z,10.98
2022-12-03T21:20:50.688Z,12.77
2022-12-03T21:23:53.292Z,10.25
2022-12-03T21:26:55.688Z,13.82
2022-12-03T21:29:57.950Z,12.80
2022-12-03T21:33:00.162Z,11.55
2022-12-03T21:36:02.986Z,10.90
2022-12-03T21:39:06.095Z,13.50
2022-12-03T21:42:18.647Z,11.50
2022-12-03T21:45:32.760Z,11.00
2022-12-03T21:48:35.779Z,12.05
2022-12-03T21:51:37.816Z,15.25
2022-12-03T21:54:43.063Z,14.70
2022-12-03T21:57:45.385Z,17.30
2022-12-03T22:00:47.509Z,13.90
2022-12-03T22:03:50.192Z,19.02
2022-12-03T22:06:52.454Z,14.60
2022-12-03T22:09:54.891Z,14.02
2022-12-03T22:12:57.200Z,14.23
2022-12-03T22:15:59.413Z,14.95
2022-12-03T22:19:01.699Z,12.32
2022-12-03T22:22:03.736Z,18.63
2022-12-03T22:25:06.133Z,19.98
2022-12-03T22:28:08.255Z,16.88
2022-12-03T22:31:11.289Z,18.35
2022-12-03T22:34:13.530Z,18.60
2022-12-03T22:37:15.588Z,18.45
2022-12-03T22:40:17.558Z,14.52
2022-12-03T22:43:20.130Z,12.25
2022-12-03T22:46:22.395Z,14.93
2022-12-03T22:49:25.349Z,14.50
2022-12-03T22:52:27.625Z,13.75
2022-12-03T22:55:29.610Z,14.75
2022-12-03T22:58:34.224Z,16.75
2022-12-03T23:01:59.496Z,14.32
2022-12-03T23:05:01.487Z,15.90
2022-12-03T23:08:05.681Z,15.35
2022-12-03T23:11:08.157Z,16.00
2022-12-03T23:14:10.249Z,10.68
2022-12-03T23:17:12.672Z,14.10
2022-12-03T23:20:15.071Z,16.67
2022-12-03T23:23:18.588Z,13.73
2022-12-03T23:26:21.058Z,12.75
2022-12-03T23:29:23.150Z,14.82
2022-12-03T23:32:25.183Z,11.07
2022-12-03T23:35:27.236Z,15.80
2022-12-03T23:38:32.632Z,18.80
2022-12-03T23:41:37.215Z,14.48
2022-12-03T23:44:39.680Z,18.08
2022-12-03T23:47:41.676Z,16.75
2022-12-03T23:50:43.736Z,18.50
2022-12-03T23:53:46.056Z,15.82
2022-12-03T23:56:48.275Z,17.30
2022-12-03T23:59:50.314Z,15.05
